Terminal Aerodrome Forecast
Issued by NWS Blacksburg, VA

Home | Current Version | Previous Version | Text Only | Print | Product List | Glossary On
Versions: 1 2 3 4 5 6 7 8 9 10 11 12 13 14 15 16 17 18 19 20 21 22 23 24 25 26 27 28 29 30
000
FTUS41 KRNK 241730
TAFBLF
TAF
KBLF 241730Z 2418/2518 31008G15KT P6SM VCTS BKN030CB
      TEMPO 2419/2421 2SM TSRA BR OVC030CB
     FM242100 31007KT P6SM SCT050 BKN100
     FM250900 00000KT 3SM BR SCT001
     FM251500 33004KT P6SM BKN120=

USA.gov is the U.S. government's official web portal to all federal, state and local government web resources and services.